Aérodrome :
LOGIN :

S'inscrire | Disclaimer

   EN    FR    IT 

 










Légende :    VFR   VFR Marginal   IFR   IFR Intensif   IFR Très Intensif
Visi : 
Plafond : 
>= 8 km
>= 3000ft
5 à 8 km
1000 à 3000 ft
1500m à 5 km
500 à 1000 ft
800 à 1500m
200 à 500 ft
< 800m
< 200 ft
Symboles :   Orages  Brouillard  Fortes neiges  Fortes précipitations  Vent > 20 kt
SIGMETs :   Divers  Orages  Givrage  Turbulence  Onde Orograph.  Cendres Volcan.






- Altitude de l'aérodrome : 19 ft
- Code IATA : LCY


EGLC - London City

DERNIER METAR :
  • 031950Z AUTO VRB07KT 9999 NCD 15/09 Q1007

METARs EXPIRÉS :
  • 031920Z AUTO 02007KT 310V110 9999 NCD 16/09 Q1007
  • 031850Z AUTO 02011KT 340V110 9999 NCD 16/09 Q1007
  • 031820Z AUTO 02008KT 330V130 9999 NCD 17/10 Q1007
  • 031750Z AUTO 01010KT 310V070 9999 NCD 17/10 Q1006
  • 031720Z AUTO 01008KT 330V090 9999 NCD 18/09 Q1006

TAF TAF EGLC
Valide du 03 à 15h jusqu'au 04 à 00h UTC


031406Z 0315/0324 03007KT 9999 FEW030
PROB40
TEMPO 0315/0324 8000 -RA BKN030
PROB30
TEMPO 0319/0324 RA BKN014
ATIS : +44 20 7646 0224



MET'MAP, la Météo Aéronautique d'un coup d'oeil ! - Copyright ORBIFLY Décembre 2007 - Disclaimer

ORBIFLY MET'MAP TEAM :

Programmation & Développement : Alexandra Zaïnal
Sur une idée originale de : Baudouin d'Aumeries
Assistance à la programmation : Marc-Olivier Méhu
Soutien technique & logistique : Manuel Goepfert

Contact : metmap@orbifly.com




SOURCES & CREDITS :

   NOAA